Terminal Aerodrome Forecast
Issued by NWS Tuscon, AZ

Home | Current Version | Previous Version | Text Only | Print | Product List | Glossary On
Versions: 1 2 3 4 5 6 7 8 9 10 11 12 13
000
FTUS45 KTWC 301900 AAA
TAFDUG
TAF AMD
KDUG 301956Z 3020/3118 VRB04KT P6SM SCT100 OVC150
     FM302300 26010G20KT P6SM VCSH BKN080 BKN100
     FM310400 VRB04KT P6SM SCT080 BKN120=

USA.gov is the U.S. government's official web portal to all federal, state and local government web resources and services.